sensor_id;sensor_type;location;lat;lon;timestamp;P1;durP1;ratioP1;P2;durP2;ratioP2
54929;SDS011;40833;53.238;6.576;2023-12-20T00:00:20;18.20;;;2.10;;
54929;SDS011;40833;53.238;6.576;2023-12-20T00:02:46;19.40;;;1.80;;
54929;SDS011;40833;53.238;6.576;2023-12-20T00:05:12;21.03;;;2.00;;
54929;SDS011;40833;53.238;6.576;2023-12-20T00:07:39;21.63;;;1.80;;
54929;SDS011;40833;53.238;6.576;2023-12-20T00:10:05;29.77;;;1.83;;
54929;SDS011;40833;53.238;6.576;2023-12-20T00:12:31;21.90;;;1.90;;
54929;SDS011;40833;53.238;6.576;2023-12-20T00:14:57;22.80;;;2.10;;
54929;SDS011;40833;53.238;6.576;2023-12-20T00:17:22;22.43;;;2.83;;
54929;SDS011;40833;53.238;6.576;2023-12-20T00:19:48;15.60;;;2.13;;
54929;SDS011;40833;53.238;6.576;2023-12-20T00:22:14;19.50;;;3.90;;
54929;SDS011;40833;53.238;6.576;2023-12-20T00:24:39;20.90;;;4.70;;
54929;SDS011;40833;53.238;6.576;2023-12-20T00:27:05;30.90;;;5.07;;
54929;SDS011;40833;53.238;6.576;2023-12-20T00:29:30;28.13;;;4.87;;
54929;SDS011;40833;53.238;6.576;2023-12-20T00:31:56;27.77;;;5.13;;
54929;SDS011;40833;53.238;6.576;2023-12-20T00:34:22;17.87;;;3.47;;
54929;SDS011;40833;53.238;6.576;2023-12-20T00:36:47;21.27;;;3.70;;
54929;SDS011;40833;53.238;6.576;2023-12-20T00:39:13;30.23;;;4.00;;
54929;SDS011;40833;53.238;6.576;2023-12-20T00:41:39;19.23;;;2.90;;
54929;SDS011;40833;53.238;6.576;2023-12-20T00:44:04;24.30;;;4.33;;
54929;SDS011;40833;53.238;6.576;2023-12-20T00:46:30;18.47;;;3.50;;
54929;SDS011;40833;53.238;6.576;2023-12-20T00:48:55;15.83;;;3.70;;
54929;SDS011;40833;53.238;6.576;2023-12-20T00:51:21;20.23;;;3.00;;
54929;SDS011;40833;53.238;6.576;2023-12-20T00:53:49;20.90;;;3.10;;
54929;SDS011;40833;53.238;6.576;2023-12-20T00:56:15;23.00;;;2.50;;
54929;SDS011;40833;53.238;6.576;2023-12-20T00:58:41;16.83;;;1.60;;
54929;SDS011;40833;53.238;6.576;2023-12-20T01:01:06;18.73;;;2.17;;
54929;SDS011;40833;53.238;6.576;2023-12-20T01:03:32;13.07;;;1.97;;
54929;SDS011;40833;53.238;6.576;2023-12-20T01:05:58;18.43;;;2.00;;
54929;SDS011;40833;53.238;6.576;2023-12-20T01:08:23;16.37;;;3.30;;
54929;SDS011;40833;53.238;6.576;2023-12-20T01:10:49;13.43;;;2.27;;
54929;SDS011;40833;53.238;6.576;2023-12-20T01:13:15;14.37;;;2.73;;
54929;SDS011;40833;53.238;6.576;2023-12-20T01:15:40;15.17;;;2.43;;
54929;SDS011;40833;53.238;6.576;2023-12-20T01:18:06;24.20;;;2.80;;
54929;SDS011;40833;53.238;6.576;2023-12-20T01:20:32;18.10;;;2.90;;
54929;SDS011;40833;53.238;6.576;2023-12-20T01:22:57;18.37;;;3.83;;
54929;SDS011;40833;53.238;6.576;2023-12-20T01:25:23;23.00;;;4.47;;
54929;SDS011;40833;53.238;6.576;2023-12-20T01:27:49;27.13;;;4.60;;
54929;SDS011;40833;53.238;6.576;2023-12-20T01:30:15;29.47;;;4.30;;
54929;SDS011;40833;53.238;6.576;2023-12-20T01:32:41;19.83;;;3.70;;
54929;SDS011;40833;53.238;6.576;2023-12-20T01:35:06;24.23;;;4.03;;
54929;SDS011;40833;53.238;6.576;2023-12-20T01:37:32;19.07;;;2.83;;
54929;SDS011;40833;53.238;6.576;2023-12-20T01:39:58;23.23;;;2.87;;
54929;SDS011;40833;53.238;6.576;2023-12-20T01:42:24;20.20;;;2.40;;
54929;SDS011;40833;53.238;6.576;2023-12-20T01:44:49;29.40;;;4.03;;
54929;SDS011;40833;53.238;6.576;2023-12-20T01:47:15;28.73;;;3.17;;
54929;SDS011;40833;53.238;6.576;2023-12-20T01:49:41;21.47;;;2.30;;
54929;SDS011;40833;53.238;6.576;2023-12-20T01:52:07;28.40;;;3.00;;
54929;SDS011;40833;53.238;6.576;2023-12-20T01:54:33;19.97;;;2.80;;
54929;SDS011;40833;53.238;6.576;2023-12-20T01:57:00;34.37;;;2.70;;
54929;SDS011;40833;53.238;6.576;2023-12-20T01:59:27;21.27;;;2.23;;
54929;SDS011;40833;53.238;6.576;2023-12-20T02:01:54;21.33;;;2.57;;
54929;SDS011;40833;53.238;6.576;2023-12-20T02:04:20;17.60;;;2.30;;
54929;SDS011;40833;53.238;6.576;2023-12-20T02:06:46;15.70;;;1.90;;
54929;SDS011;40833;53.238;6.576;2023-12-20T02:09:12;20.13;;;1.80;;
54929;SDS011;40833;53.238;6.576;2023-12-20T02:11:38;20.80;;;2.00;;
54929;SDS011;40833;53.238;6.576;2023-12-20T02:14:03;16.47;;;1.40;;
54929;SDS011;40833;53.238;6.576;2023-12-20T02:16:30;12.10;;;1.60;;
54929;SDS011;40833;53.238;6.576;2023-12-20T02:18:55;23.50;;;2.33;;
54929;SDS011;40833;53.238;6.576;2023-12-20T02:21:25;22.20;;;2.73;;
54929;SDS011;40833;53.238;6.576;2023-12-20T02:23:56;17.63;;;1.73;;
54929;SDS011;40833;53.238;6.576;2023-12-20T02:26:22;21.73;;;2.50;;
54929;SDS011;40833;53.238;6.576;2023-12-20T02:28:48;19.83;;;1.70;;
54929;SDS011;40833;53.238;6.576;2023-12-20T02:31:13;26.23;;;3.20;;
54929;SDS011;40833;53.238;6.576;2023-12-20T02:33:39;21.90;;;1.67;;
54929;SDS011;40833;53.238;6.576;2023-12-20T02:36:07;22.07;;;2.47;;
54929;SDS011;40833;53.238;6.576;2023-12-20T02:38:32;27.30;;;3.70;;
54929;SDS011;40833;53.238;6.576;2023-12-20T02:40:59;28.27;;;3.27;;
54929;SDS011;40833;53.238;6.576;2023-12-20T02:43:24;29.33;;;4.27;;
54929;SDS011;40833;53.238;6.576;2023-12-20T02:45:50;21.73;;;2.73;;
54929;SDS011;40833;53.238;6.576;2023-12-20T02:48:16;19.43;;;2.00;;
54929;SDS011;40833;53.238;6.576;2023-12-20T02:50:42;24.47;;;3.70;;
54929;SDS011;40833;53.238;6.576;2023-12-20T02:53:08;18.50;;;2.63;;
54929;SDS011;40833;53.238;6.576;2023-12-20T02:55:34;22.97;;;2.40;;
54929;SDS011;40833;53.238;6.576;2023-12-20T02:57:59;24.83;;;3.17;;
54929;SDS011;40833;53.238;6.576;2023-12-20T03:00:25;24.23;;;2.83;;
54929;SDS011;40833;53.238;6.576;2023-12-20T03:02:50;28.53;;;3.23;;
54929;SDS011;40833;53.238;6.576;2023-12-20T03:05:16;24.77;;;2.53;;
54929;SDS011;40833;53.238;6.576;2023-12-20T03:07:42;27.27;;;3.97;;
54929;SDS011;40833;53.238;6.576;2023-12-20T03:10:07;26.03;;;2.67;;
54929;SDS011;40833;53.238;6.576;2023-12-20T03:12:34;34.63;;;2.90;;
54929;SDS011;40833;53.238;6.576;2023-12-20T03:15:00;30.73;;;3.60;;
54929;SDS011;40833;53.238;6.576;2023-12-20T03:17:25;42.83;;;4.10;;
54929;SDS011;40833;53.238;6.576;2023-12-20T03:19:51;38.97;;;3.73;;
54929;SDS011;40833;53.238;6.576;2023-12-20T03:22:17;33.87;;;3.80;;
54929;SDS011;40833;53.238;6.576;2023-12-20T03:24:42;34.73;;;3.47;;
54929;SDS011;40833;53.238;6.576;2023-12-20T03:27:08;46.30;;;4.03;;
54929;SDS011;40833;53.238;6.576;2023-12-20T03:29:34;37.53;;;3.77;;
54929;SDS011;40833;53.238;6.576;2023-12-20T03:31:59;45.17;;;3.97;;
54929;SDS011;40833;53.238;6.576;2023-12-20T03:34:26;35.03;;;3.60;;
54929;SDS011;40833;53.238;6.576;2023-12-20T03:36:51;20.77;;;2.53;;
54929;SDS011;40833;53.238;6.576;2023-12-20T03:39:17;19.43;;;2.47;;
54929;SDS011;40833;53.238;6.576;2023-12-20T03:41:43;28.07;;;3.00;;
54929;SDS011;40833;53.238;6.576;2023-12-20T03:44:08;30.13;;;3.77;;
54929;SDS011;40833;53.238;6.576;2023-12-20T03:46:34;31.60;;;3.40;;
54929;SDS011;40833;53.238;6.576;2023-12-20T03:49:00;38.60;;;3.40;;
54929;SDS011;40833;53.238;6.576;2023-12-20T03:51:25;35.40;;;3.53;;
54929;SDS011;40833;53.238;6.576;2023-12-20T03:53:51;28.90;;;3.27;;
54929;SDS011;40833;53.238;6.576;2023-12-20T03:56:16;31.23;;;3.10;;
54929;SDS011;40833;53.238;6.576;2023-12-20T03:58:42;38.20;;;4.03;;
54929;SDS011;40833;53.238;6.576;2023-12-20T04:01:11;36.87;;;4.10;;
54929;SDS011;40833;53.238;6.576;2023-12-20T04:03:37;31.23;;;4.23;;
54929;SDS011;40833;53.238;6.576;2023-12-20T04:06:03;34.07;;;3.30;;
54929;SDS011;40833;53.238;6.576;2023-12-20T04:08:29;49.53;;;4.63;;
54929;SDS011;40833;53.238;6.576;2023-12-20T04:10:55;46.20;;;3.80;;
54929;SDS011;40833;53.238;6.576;2023-12-20T04:13:20;33.57;;;4.03;;
54929;SDS011;40833;53.238;6.576;2023-12-20T04:15:46;39.03;;;4.60;;
54929;SDS011;40833;53.238;6.576;2023-12-20T04:18:11;34.40;;;3.90;;
54929;SDS011;40833;53.238;6.576;2023-12-20T04:20:37;32.20;;;4.13;;
54929;SDS011;40833;53.238;6.576;2023-12-20T04:23:03;35.23;;;4.43;;
54929;SDS011;40833;53.238;6.576;2023-12-20T04:25:28;41.80;;;4.80;;
54929;SDS011;40833;53.238;6.576;2023-12-20T04:27:54;34.00;;;3.20;;
54929;SDS011;40833;53.238;6.576;2023-12-20T04:30:20;42.93;;;5.20;;
54929;SDS011;40833;53.238;6.576;2023-12-20T04:32:45;41.23;;;4.43;;
54929;SDS011;40833;53.238;6.576;2023-12-20T04:35:11;37.40;;;5.13;;
54929;SDS011;40833;53.238;6.576;2023-12-20T04:37:37;34.23;;;3.93;;
54929;SDS011;40833;53.238;6.576;2023-12-20T04:40:03;32.23;;;3.07;;
54929;SDS011;40833;53.238;6.576;2023-12-20T04:42:30;34.70;;;4.23;;
54929;SDS011;40833;53.238;6.576;2023-12-20T04:44:56;31.87;;;4.23;;
54929;SDS011;40833;53.238;6.576;2023-12-20T04:47:21;50.33;;;4.60;;
54929;SDS011;40833;53.238;6.576;2023-12-20T04:49:47;36.37;;;3.40;;
54929;SDS011;40833;53.238;6.576;2023-12-20T04:52:13;35.97;;;5.93;;
54929;SDS011;40833;53.238;6.576;2023-12-20T04:54:39;30.73;;;3.77;;
54929;SDS011;40833;53.238;6.576;2023-12-20T04:57:05;36.67;;;3.77;;
54929;SDS011;40833;53.238;6.576;2023-12-20T04:59:31;40.47;;;3.97;;
54929;SDS011;40833;53.238;6.576;2023-12-20T05:01:56;38.43;;;3.60;;
54929;SDS011;40833;53.238;6.576;2023-12-20T05:04:22;41.33;;;4.53;;
54929;SDS011;40833;53.238;6.576;2023-12-20T05:06:48;33.47;;;6.07;;
54929;SDS011;40833;53.238;6.576;2023-12-20T05:09:15;35.93;;;4.27;;
54929;SDS011;40833;53.238;6.576;2023-12-20T05:11:41;36.27;;;4.10;;
54929;SDS011;40833;53.238;6.576;2023-12-20T05:14:06;26.30;;;2.80;;
54929;SDS011;40833;53.238;6.576;2023-12-20T05:16:33;47.40;;;6.00;;
54929;SDS011;40833;53.238;6.576;2023-12-20T05:18:58;32.03;;;3.73;;
54929;SDS011;40833;53.238;6.576;2023-12-20T05:21:26;27.83;;;3.27;;
54929;SDS011;40833;53.238;6.576;2023-12-20T05:23:51;33.37;;;3.47;;
54929;SDS011;40833;53.238;6.576;2023-12-20T05:26:17;28.83;;;3.40;;
54929;SDS011;40833;53.238;6.576;2023-12-20T05:28:43;37.77;;;4.00;;
54929;SDS011;40833;53.238;6.576;2023-12-20T05:31:09;42.37;;;4.17;;
54929;SDS011;40833;53.238;6.576;2023-12-20T05:33:35;32.27;;;3.30;;
54929;SDS011;40833;53.238;6.576;2023-12-20T05:36:00;39.30;;;3.93;;
54929;SDS011;40833;53.238;6.576;2023-12-20T05:38:26;34.27;;;4.53;;
54929;SDS011;40833;53.238;6.576;2023-12-20T05:40:52;39.00;;;5.37;;
54929;SDS011;40833;53.238;6.576;2023-12-20T05:43:17;47.00;;;4.33;;
54929;SDS011;40833;53.238;6.576;2023-12-20T05:45:43;39.70;;;4.57;;
54929;SDS011;40833;53.238;6.576;2023-12-20T05:48:09;33.57;;;4.17;;
54929;SDS011;40833;53.238;6.576;2023-12-20T05:50:34;36.23;;;4.60;;
54929;SDS011;40833;53.238;6.576;2023-12-20T05:53:00;37.03;;;4.43;;
54929;SDS011;40833;53.238;6.576;2023-12-20T05:55:26;30.00;;;3.43;;
54929;SDS011;40833;53.238;6.576;2023-12-20T05:57:51;38.90;;;4.50;;
54929;SDS011;40833;53.238;6.576;2023-12-20T06:00:17;39.17;;;4.77;;
54929;SDS011;40833;53.238;6.576;2023-12-20T06:02:43;27.83;;;3.23;;
54929;SDS011;40833;53.238;6.576;2023-12-20T06:05:09;42.83;;;5.63;;
54929;SDS011;40833;53.238;6.576;2023-12-20T06:07:35;35.27;;;3.47;;
54929;SDS011;40833;53.238;6.576;2023-12-20T06:10:00;45.27;;;5.70;;
54929;SDS011;40833;53.238;6.576;2023-12-20T06:12:26;36.57;;;5.23;;
54929;SDS011;40833;53.238;6.576;2023-12-20T06:14:53;36.73;;;3.97;;
54929;SDS011;40833;53.238;6.576;2023-12-20T06:17:19;29.23;;;3.87;;
54929;SDS011;40833;53.238;6.576;2023-12-20T06:19:45;34.57;;;4.70;;
54929;SDS011;40833;53.238;6.576;2023-12-20T06:22:13;38.30;;;4.37;;
54929;SDS011;40833;53.238;6.576;2023-12-20T06:24:39;29.17;;;3.70;;
54929;SDS011;40833;53.238;6.576;2023-12-20T06:27:05;29.83;;;3.10;;
54929;SDS011;40833;53.238;6.576;2023-12-20T06:29:31;31.03;;;4.00;;
54929;SDS011;40833;53.238;6.576;2023-12-20T06:31:57;37.90;;;4.07;;
54929;SDS011;40833;53.238;6.576;2023-12-20T06:34:22;32.50;;;3.83;;
54929;SDS011;40833;53.238;6.576;2023-12-20T06:36:48;34.33;;;3.80;;
54929;SDS011;40833;53.238;6.576;2023-12-20T06:39:14;40.93;;;4.87;;
54929;SDS011;40833;53.238;6.576;2023-12-20T06:41:39;31.00;;;4.90;;
54929;SDS011;40833;53.238;6.576;2023-12-20T06:44:05;41.83;;;4.00;;
54929;SDS011;40833;53.238;6.576;2023-12-20T06:46:31;30.50;;;2.73;;
54929;SDS011;40833;53.238;6.576;2023-12-20T06:48:56;28.53;;;3.83;;
54929;SDS011;40833;53.238;6.576;2023-12-20T06:51:22;33.00;;;4.33;;
54929;SDS011;40833;53.238;6.576;2023-12-20T06:53:50;31.17;;;3.47;;
54929;SDS011;40833;53.238;6.576;2023-12-20T06:56:17;44.30;;;4.23;;
54929;SDS011;40833;53.238;6.576;2023-12-20T06:58:42;31.53;;;5.17;;
54929;SDS011;40833;53.238;6.576;2023-12-20T07:01:14;33.53;;;3.10;;
54929;SDS011;40833;53.238;6.576;2023-12-20T07:03:41;33.13;;;4.93;;
54929;SDS011;40833;53.238;6.576;2023-12-20T07:06:07;30.50;;;4.00;;
54929;SDS011;40833;53.238;6.576;2023-12-20T07:08:33;30.57;;;4.07;;
54929;SDS011;40833;53.238;6.576;2023-12-20T07:10:59;36.43;;;4.43;;
54929;SDS011;40833;53.238;6.576;2023-12-20T07:13:25;40.93;;;4.80;;
54929;SDS011;40833;53.238;6.576;2023-12-20T07:15:50;31.90;;;3.97;;
54929;SDS011;40833;53.238;6.576;2023-12-20T07:18:16;30.13;;;3.20;;
54929;SDS011;40833;53.238;6.576;2023-12-20T07:20:42;31.67;;;4.50;;
54929;SDS011;40833;53.238;6.576;2023-12-20T07:23:08;38.90;;;4.03;;
54929;SDS011;40833;53.238;6.576;2023-12-20T07:25:34;33.33;;;4.50;;
54929;SDS011;40833;53.238;6.576;2023-12-20T07:27:59;32.93;;;3.70;;
54929;SDS011;40833;53.238;6.576;2023-12-20T07:30:25;36.03;;;3.40;;
54929;SDS011;40833;53.238;6.576;2023-12-20T07:32:51;29.50;;;4.07;;
54929;SDS011;40833;53.238;6.576;2023-12-20T07:35:17;21.10;;;2.67;;
54929;SDS011;40833;53.238;6.576;2023-12-20T07:37:43;34.10;;;4.70;;
54929;SDS011;40833;53.238;6.576;2023-12-20T07:40:09;26.90;;;3.70;;
54929;SDS011;40833;53.238;6.576;2023-12-20T07:42:35;36.23;;;4.57;;
54929;SDS011;40833;53.238;6.576;2023-12-20T07:45:00;37.90;;;4.47;;
54929;SDS011;40833;53.238;6.576;2023-12-20T07:47:26;24.47;;;3.00;;
54929;SDS011;40833;53.238;6.576;2023-12-20T07:49:52;38.43;;;4.00;;
54929;SDS011;40833;53.238;6.576;2023-12-20T07:52:18;29.13;;;3.53;;
54929;SDS011;40833;53.238;6.576;2023-12-20T07:54:44;38.40;;;3.97;;
54929;SDS011;40833;53.238;6.576;2023-12-20T07:57:10;25.03;;;3.57;;
54929;SDS011;40833;53.238;6.576;2023-12-20T07:59:36;35.00;;;3.60;;
54929;SDS011;40833;53.238;6.576;2023-12-20T08:02:02;36.53;;;4.07;;
54929;SDS011;40833;53.238;6.576;2023-12-20T08:04:28;30.40;;;4.30;;
54929;SDS011;40833;53.238;6.576;2023-12-20T08:06:53;38.20;;;3.77;;
54929;SDS011;40833;53.238;6.576;2023-12-20T08:09:19;31.37;;;4.13;;
54929;SDS011;40833;53.238;6.576;2023-12-20T08:11:48;33.53;;;3.60;;
54929;SDS011;40833;53.238;6.576;2023-12-20T08:14:15;39.50;;;3.90;;
54929;SDS011;40833;53.238;6.576;2023-12-20T08:16:41;34.53;;;6.13;;
54929;SDS011;40833;53.238;6.576;2023-12-20T08:19:06;35.80;;;5.90;;
54929;SDS011;40833;53.238;6.576;2023-12-20T08:21:32;27.07;;;3.90;;
54929;SDS011;40833;53.238;6.576;2023-12-20T08:24:01;34.10;;;4.43;;
54929;SDS011;40833;53.238;6.576;2023-12-20T08:26:28;24.93;;;3.47;;
54929;SDS011;40833;53.238;6.576;2023-12-20T08:28:53;30.43;;;4.77;;
54929;SDS011;40833;53.238;6.576;2023-12-20T08:31:19;27.33;;;4.23;;
54929;SDS011;40833;53.238;6.576;2023-12-20T08:33:46;27.57;;;4.07;;
54929;SDS011;40833;53.238;6.576;2023-12-20T08:36:13;14.30;;;1.83;;
54929;SDS011;40833;53.238;6.576;2023-12-20T08:38:39;3.00;;;0.67;;
54929;SDS011;40833;53.238;6.576;2023-12-20T08:41:06;7.57;;;1.30;;
54929;SDS011;40833;53.238;6.576;2023-12-20T08:43:32;9.23;;;0.80;;
54929;SDS011;40833;53.238;6.576;2023-12-20T08:45:59;12.03;;;1.37;;
54929;SDS011;40833;53.238;6.576;2023-12-20T08:48:25;18.73;;;1.30;;
54929;SDS011;40833;53.238;6.576;2023-12-20T08:50:51;16.50;;;1.30;;
54929;SDS011;40833;53.238;6.576;2023-12-20T08:53:18;21.57;;;1.30;;
54929;SDS011;40833;53.238;6.576;2023-12-20T08:55:44;13.27;;;0.70;;
54929;SDS011;40833;53.238;6.576;2023-12-20T08:58:10;15.93;;;0.70;;
54929;SDS011;40833;53.238;6.576;2023-12-20T09:00:36;12.97;;;0.90;;
54929;SDS011;40833;53.238;6.576;2023-12-20T09:03:01;15.23;;;1.90;;
54929;SDS011;40833;53.238;6.576;2023-12-20T09:05:27;20.50;;;1.00;;
54929;SDS011;40833;53.238;6.576;2023-12-20T09:07:53;30.43;;;2.10;;
54929;SDS011;40833;53.238;6.576;2023-12-20T09:10:19;30.03;;;1.73;;
54929;SDS011;40833;53.238;6.576;2023-12-20T09:12:50;26.83;;;2.17;;
54929;SDS011;40833;53.238;6.576;2023-12-20T09:15:21;30.10;;;2.03;;
54929;SDS011;40833;53.238;6.576;2023-12-20T09:17:48;28.33;;;1.80;;
54929;SDS011;40833;53.238;6.576;2023-12-20T09:20:13;15.47;;;1.40;;
54929;SDS011;40833;53.238;6.576;2023-12-20T09:22:39;18.63;;;1.47;;
54929;SDS011;40833;53.238;6.576;2023-12-20T09:25:06;16.37;;;1.57;;
54929;SDS011;40833;53.238;6.576;2023-12-20T09:27:33;15.10;;;1.10;;
54929;SDS011;40833;53.238;6.576;2023-12-20T09:29:58;15.40;;;1.20;;
54929;SDS011;40833;53.238;6.576;2023-12-20T09:32:24;12.23;;;1.37;;
54929;SDS011;40833;53.238;6.576;2023-12-20T09:34:49;11.07;;;0.80;;
54929;SDS011;40833;53.238;6.576;2023-12-20T09:37:16;17.03;;;1.20;;
54929;SDS011;40833;53.238;6.576;2023-12-20T09:39:41;9.73;;;1.27;;
54929;SDS011;40833;53.238;6.576;2023-12-20T09:42:07;7.50;;;0.77;;
54929;SDS011;40833;53.238;6.576;2023-12-20T09:44:35;8.50;;;1.00;;
54929;SDS011;40833;53.238;6.576;2023-12-20T09:47:02;8.70;;;0.77;;
54929;SDS011;40833;53.238;6.576;2023-12-20T09:49:28;5.83;;;0.50;;
54929;SDS011;40833;53.238;6.576;2023-12-20T09:51:56;15.17;;;0.83;;
54929;SDS011;40833;53.238;6.576;2023-12-20T09:54:22;15.20;;;0.80;;
54929;SDS011;40833;53.238;6.576;2023-12-20T09:56:48;8.70;;;0.43;;
54929;SDS011;40833;53.238;6.576;2023-12-20T09:59:15;13.07;;;1.13;;
54929;SDS011;40833;53.238;6.576;2023-12-20T10:01:41;11.43;;;1.13;;
54929;SDS011;40833;53.238;6.576;2023-12-20T10:04:08;14.67;;;1.20;;
54929;SDS011;40833;53.238;6.576;2023-12-20T10:06:43;11.27;;;1.20;;
54929;SDS011;40833;53.238;6.576;2023-12-20T10:11:36;14.17;;;1.43;;
54929;SDS011;40833;53.238;6.576;2023-12-20T10:14:05;16.47;;;1.50;;
54929;SDS011;40833;53.238;6.576;2023-12-20T10:16:32;21.20;;;1.90;;
54929;SDS011;40833;53.238;6.576;2023-12-20T10:18:58;18.13;;;1.20;;
54929;SDS011;40833;53.238;6.576;2023-12-20T10:21:26;11.63;;;0.97;;
54929;SDS011;40833;53.238;6.576;2023-12-20T10:23:52;18.57;;;2.07;;
54929;SDS011;40833;53.238;6.576;2023-12-20T10:26:20;19.00;;;2.03;;
54929;SDS011;40833;53.238;6.576;2023-12-20T10:28:46;13.33;;;1.10;;
54929;SDS011;40833;53.238;6.576;2023-12-20T10:31:29;20.87;;;1.40;;
54929;SDS011;40833;53.238;6.576;2023-12-20T10:33:56;25.23;;;2.40;;
54929;SDS011;40833;53.238;6.576;2023-12-20T10:36:23;19.50;;;2.30;;
54929;SDS011;40833;53.238;6.576;2023-12-20T10:38:51;15.90;;;1.83;;
54929;SDS011;40833;53.238;6.576;2023-12-20T10:41:18;13.50;;;1.30;;
54929;SDS011;40833;53.238;6.576;2023-12-20T10:43:52;12.97;;;1.50;;
54929;SDS011;40833;53.238;6.576;2023-12-20T10:46:21;23.57;;;1.73;;
54929;SDS011;40833;53.238;6.576;2023-12-20T10:48:47;18.60;;;1.97;;
54929;SDS011;40833;53.238;6.576;2023-12-20T10:51:17;11.30;;;1.80;;
54929;SDS011;40833;53.238;6.576;2023-12-20T10:53:43;20.00;;;2.63;;
54929;SDS011;40833;53.238;6.576;2023-12-20T10:56:11;19.90;;;2.27;;
54929;SDS011;40833;53.238;6.576;2023-12-20T10:58:41;30.87;;;2.50;;
54929;SDS011;40833;53.238;6.576;2023-12-20T11:01:08;21.37;;;1.60;;
54929;SDS011;40833;53.238;6.576;2023-12-20T11:03:35;18.77;;;2.97;;
54929;SDS011;40833;53.238;6.576;2023-12-20T11:06:12;31.63;;;2.70;;
54929;SDS011;40833;53.238;6.576;2023-12-20T11:09:17;22.27;;;2.57;;
54929;SDS011;40833;53.238;6.576;2023-12-20T11:17:12;24.60;;;2.27;;
54929;SDS011;40833;53.238;6.576;2023-12-20T11:22:25;19.07;;;2.43;;
54929;SDS011;40833;53.238;6.576;2023-12-20T11:27:27;20.73;;;2.58;;
54929;SDS011;40833;53.238;6.576;2023-12-20T11:29:53;19.63;;;2.40;;
54929;SDS011;40833;53.238;6.576;2023-12-20T11:34:53;25.57;;;3.60;;
54929;SDS011;40833;53.238;6.576;2023-12-20T11:37:20;21.97;;;2.80;;
54929;SDS011;40833;53.238;6.576;2023-12-20T11:39:56;25.77;;;2.00;;
54929;SDS011;40833;53.238;6.576;2023-12-20T11:42:33;27.47;;;3.47;;
54929;SDS011;40833;53.238;6.576;2023-12-20T11:45:16;28.97;;;3.20;;
54929;SDS011;40833;53.238;6.576;2023-12-20T11:47:48;24.00;;;2.90;;
54929;SDS011;40833;53.238;6.576;2023-12-20T11:50:21;37.30;;;3.50;;
54929;SDS011;40833;53.238;6.576;2023-12-20T11:52:48;27.77;;;2.67;;
54929;SDS011;40833;53.238;6.576;2023-12-20T11:55:14;21.07;;;2.27;;
54929;SDS011;40833;53.238;6.576;2023-12-20T11:57:41;17.27;;;3.00;;
54929;SDS011;40833;53.238;6.576;2023-12-20T12:00:08;16.47;;;2.57;;
54929;SDS011;40833;53.238;6.576;2023-12-20T12:02:35;21.83;;;2.20;;
54929;SDS011;40833;53.238;6.576;2023-12-20T12:05:00;21.80;;;2.37;;
54929;SDS011;40833;53.238;6.576;2023-12-20T12:07:26;35.30;;;2.40;;
54929;SDS011;40833;53.238;6.576;2023-12-20T12:09:52;26.37;;;5.10;;
54929;SDS011;40833;53.238;6.576;2023-12-20T12:12:18;28.50;;;2.80;;
54929;SDS011;40833;53.238;6.576;2023-12-20T12:14:45;28.40;;;2.47;;
54929;SDS011;40833;53.238;6.576;2023-12-20T12:17:11;18.77;;;2.37;;
54929;SDS011;40833;53.238;6.576;2023-12-20T12:19:38;23.20;;;2.27;;
54929;SDS011;40833;53.238;6.576;2023-12-20T12:24:33;18.00;;;3.13;;
54929;SDS011;40833;53.238;6.576;2023-12-20T12:26:59;23.10;;;2.60;;
54929;SDS011;40833;53.238;6.576;2023-12-20T12:29:25;20.10;;;1.70;;
54929;SDS011;40833;53.238;6.576;2023-12-20T12:31:51;24.60;;;2.80;;
54929;SDS011;40833;53.238;6.576;2023-12-20T12:34:19;16.07;;;2.10;;
54929;SDS011;40833;53.238;6.576;2023-12-20T12:36:45;26.50;;;1.93;;
54929;SDS011;40833;53.238;6.576;2023-12-20T12:39:17;24.97;;;2.20;;
54929;SDS011;40833;53.238;6.576;2023-12-20T12:44:09;18.53;;;2.23;;
54929;SDS011;40833;53.238;6.576;2023-12-20T12:46:34;15.70;;;1.60;;
54929;SDS011;40833;53.238;6.576;2023-12-20T12:49:00;20.37;;;1.97;;
54929;SDS011;40833;53.238;6.576;2023-12-20T12:51:26;18.73;;;2.23;;
54929;SDS011;40833;53.238;6.576;2023-12-20T12:53:51;17.87;;;2.53;;
54929;SDS011;40833;53.238;6.576;2023-12-20T12:56:18;22.60;;;2.03;;
54929;SDS011;40833;53.238;6.576;2023-12-20T12:58:43;17.27;;;2.37;;
54929;SDS011;40833;53.238;6.576;2023-12-20T13:01:09;14.73;;;1.10;;
54929;SDS011;40833;53.238;6.576;2023-12-20T13:03:35;12.53;;;1.60;;
54929;SDS011;40833;53.238;6.576;2023-12-20T13:06:01;18.40;;;2.27;;
54929;SDS011;40833;53.238;6.576;2023-12-20T13:08:28;21.07;;;2.07;;
54929;SDS011;40833;53.238;6.576;2023-12-20T13:10:54;22.67;;;1.87;;
54929;SDS011;40833;53.238;6.576;2023-12-20T13:13:22;14.60;;;2.00;;
54929;SDS011;40833;53.238;6.576;2023-12-20T13:15:48;19.00;;;2.37;;
54929;SDS011;40833;53.238;6.576;2023-12-20T13:18:17;16.93;;;2.20;;
54929;SDS011;40833;53.238;6.576;2023-12-20T13:20:44;16.53;;;1.80;;
54929;SDS011;40833;53.238;6.576;2023-12-20T13:23:10;15.77;;;2.10;;
54929;SDS011;40833;53.238;6.576;2023-12-20T13:25:35;14.97;;;1.70;;
54929;SDS011;40833;53.238;6.576;2023-12-20T13:28:01;27.77;;;2.73;;
54929;SDS011;40833;53.238;6.576;2023-12-20T13:30:28;16.90;;;1.77;;
54929;SDS011;40833;53.238;6.576;2023-12-20T13:32:54;16.43;;;1.70;;
54929;SDS011;40833;53.238;6.576;2023-12-20T13:35:20;11.93;;;1.57;;
54929;SDS011;40833;53.238;6.576;2023-12-20T13:37:46;25.73;;;2.30;;
54929;SDS011;40833;53.238;6.576;2023-12-20T13:40:12;21.37;;;2.17;;
54929;SDS011;40833;53.238;6.576;2023-12-20T13:42:38;20.67;;;2.43;;
54929;SDS011;40833;53.238;6.576;2023-12-20T13:45:04;18.23;;;2.60;;
54929;SDS011;40833;53.238;6.576;2023-12-20T13:47:31;15.43;;;2.40;;
54929;SDS011;40833;53.238;6.576;2023-12-20T13:49:57;18.47;;;1.53;;
54929;SDS011;40833;53.238;6.576;2023-12-20T13:52:23;15.23;;;1.47;;
54929;SDS011;40833;53.238;6.576;2023-12-20T13:54:49;20.53;;;2.40;;
54929;SDS011;40833;53.238;6.576;2023-12-20T13:57:14;16.90;;;1.83;;
54929;SDS011;40833;53.238;6.576;2023-12-20T13:59:40;15.37;;;1.73;;
54929;SDS011;40833;53.238;6.576;2023-12-20T14:02:06;12.97;;;1.37;;
54929;SDS011;40833;53.238;6.576;2023-12-20T14:04:32;14.33;;;1.13;;
54929;SDS011;40833;53.238;6.576;2023-12-20T14:06:57;10.13;;;1.00;;
54929;SDS011;40833;53.238;6.576;2023-12-20T14:09:23;12.07;;;1.10;;
54929;SDS011;40833;53.238;6.576;2023-12-20T14:11:49;12.53;;;0.97;;
54929;SDS011;40833;53.238;6.576;2023-12-20T14:14:15;13.77;;;1.20;;
54929;SDS011;40833;53.238;6.576;2023-12-20T14:16:41;9.50;;;1.20;;
54929;SDS011;40833;53.238;6.576;2023-12-20T14:19:10;6.53;;;0.80;;
54929;SDS011;40833;53.238;6.576;2023-12-20T14:21:36;7.27;;;1.00;;
54929;SDS011;40833;53.238;6.576;2023-12-20T14:24:02;13.63;;;1.77;;
54929;SDS011;40833;53.238;6.576;2023-12-20T14:26:29;11.43;;;1.27;;
54929;SDS011;40833;53.238;6.576;2023-12-20T14:28:55;10.07;;;1.00;;
54929;SDS011;40833;53.238;6.576;2023-12-20T14:31:21;11.37;;;1.23;;
54929;SDS011;40833;53.238;6.576;2023-12-20T14:33:49;12.37;;;1.07;;
54929;SDS011;40833;53.238;6.576;2023-12-20T14:36:16;12.17;;;1.70;;
54929;SDS011;40833;53.238;6.576;2023-12-20T14:38:43;11.93;;;0.70;;
54929;SDS011;40833;53.238;6.576;2023-12-20T14:41:09;9.70;;;1.20;;
54929;SDS011;40833;53.238;6.576;2023-12-20T14:43:34;13.70;;;1.60;;
54929;SDS011;40833;53.238;6.576;2023-12-20T14:46:00;7.43;;;0.43;;
54929;SDS011;40833;53.238;6.576;2023-12-20T14:48:26;7.63;;;1.00;;
54929;SDS011;40833;53.238;6.576;2023-12-20T14:50:53;16.50;;;1.70;;